Briefing drone pour La roche-sur-foron

Rechercher une autre localisation

Conditions de vol :


Nous sommes le : Samedi 31 juillet 2021
Il est 21:33 UTC (23:33 LT)

Lever de soleil : 03:49 UTC (05:49 LT)
Coucher de soleil : 19:32 UTC (21:32 LT)

Météo

L'essentiel des conditions de vol

VIGILANCE MÉTÉO FRANCE - Haute-Savoie (74)
Vigilance Jaune : Pluie-inondation / Orages / Inondation
METAR de LFLP
LFLP 312130Z AUTO 32004KT 270V350 9999 BKN016/// BKN052/// OVC090/// ///TCU 16/14 Q1013

Date d'émission: 31/07/2021
Heure d'émission: 21:30 UTC
Vent: 320° (variable du 270° au 350°) pour 4 KT (7 km/h)
Visibilité horizontale: > 10 km
Plafond :
- Nuages morcelés à 1600ft (488m)
- Nuages morcelés à 5200ft (1585m)
- Couvert à 9000ft (2743m)
Température: 16 °C
Point de rosée: 14 °C
Humidité: 88%
Pression (QNH): 1013 hPa
TAF de LFLP
AMD LFLP 311900Z 3119/0115 CNL

Conditions prévues :

Heure d'émission : Bulletin éffectué le 31 à 19:00 UTC
Prévision : Valide du 31 a 19:00 UTC au 01 a 15:00 UTC
Nuages : à 0ft (0 m)
WEBCAM POUR LA ROCHE-SUR-FORON

Réglementation

Voler en sécurité

CARTES AERONAUTIQUE 1/500.000
CARTES VAC (LFLP)
SUP AIP




Chargement des AIP...
NOTAM (LA ROCHE-SUR-FORON + Terrain à proximité / FIR )




Chargement des NOTAMS...
CONTACT PREFECTURE 74


Avertissement : Les données mises à disposition sont indicatives. Oxygène Drone ne pourra être tenu responsable de dégâts causés aux biens et aux personnes.